Agua Comprida, Brazil
Current Conditions -  °F | °C
As of 8:00 AM on Thursday 18 Dec 2014 (Local Time) from SBRP Reporting Station
Clear Clear  
Wind Chill: 75°   Ceiling: Unl
Heat Index: 75°   Visibility: 6mi
Dew Point: 68°   Wind: 2mph
Humidity: 78%   Direction: 50°NE
Pressure: 29.85"   Gusts: NA
Location:  20.07°S, 48.13°W
Report Text: SBRP 181000Z 05002KT CAVOK 24/20 Q1011
Loading
Personal Weather Stations






























Interactive Weather Map New forecast layout! Learn more

10-Day Weather Forecast

Advertisements
Track Severe Weather on mobile